Time;durP1;ratioP1;P1;durP2;ratioP2;P2;SDS_P1;SDS_P2;PMS_P1;PMS_P2;Temp;Humidity;BMP_temperature;BMP_pressure;BME280_temperature;BME280_humidity;BME280_pressure;Samples;Min_cycle;Max_cycle;Signal;HPM_P1;HPM_P2
2022/04/24 00:00:27;;;;;;;8.93;5.00;;;;;;;;;;5118524;28;20027;-85
2022/04/24 00:02:53;;;;;;;7.05;3.30;;;;;;;;;;5127611;28;20015;-86
2022/04/24 00:05:18;;;;;;;4.35;2.95;;;;;;;;;;5127190;28;20016;-82
2022/04/24 00:07:43;;;;;;;6.85;4.22;;;;;;;;;;5120977;28;20016;-81
2022/04/24 00:10:10;;;;;;;6.13;3.78;;;;;;;;;;5118068;28;20007;-85
2022/04/24 00:12:36;;;;;;;7.13;3.97;;;;;;;;;;5118780;28;20034;-84
2022/04/24 00:15:01;;;;;;;9.70;4.05;;;;;;;;;;5120318;28;20068;-84
2022/04/24 00:17:26;;;;;;;8.23;4.10;;;;;;;;;;5117745;28;20004;-85
2022/04/24 00:19:51;;;;;;;6.60;3.50;;;;;;;;;;5124341;28;20016;-84
2022/04/24 00:22:17;;;;;;;6.57;3.45;;;;;;;;;;5126664;28;20020;-83
2022/04/24 00:24:42;;;;;;;7.15;3.33;;;;;;;;;;5117524;28;20068;-83
2022/04/24 00:27:08;;;;;;;6.23;2.80;;;;;;;;;;5116331;28;20587;-83
2022/04/24 00:29:33;;;;;;;4.47;2.88;;;;;;;;;;5117324;28;20291;-85
2022/04/24 00:31:58;;;;;;;4.25;2.72;;;;;;;;;;5117027;28;20056;-83
2022/04/24 00:34:24;;;;;;;6.72;2.78;;;;;;;;;;5117333;28;20024;-85
2022/04/24 00:36:49;;;;;;;4.13;2.88;;;;;;;;;;5117535;28;20020;-86
2022/04/24 00:39:14;;;;;;;4.25;2.80;;;;;;;;;;5117216;28;20095;-85
2022/04/24 00:41:49;;;;;;;4.30;2.72;;;;;;;;;;5117240;28;20016;-86
2022/04/24 00:44:15;;;;;;;4.35;3.03;;;;;;;;;;5117578;28;20022;-86
2022/04/24 00:46:42;;;;;;;5.93;3.13;;;;;;;;;;5117277;28;20031;-83
2022/04/24 00:49:11;;;;;;;5.28;3.28;;;;;;;;;;5116673;28;20004;-85
2022/04/24 00:51:43;;;;;;;6.13;3.50;;;;;;;;;;5117315;28;20012;-87
2022/04/24 00:54:09;;;;;;;9.48;3.83;;;;;;;;;;5117185;28;20083;-83
2022/04/24 00:56:35;;;;;;;5.75;3.70;;;;;;;;;;5130763;28;20083;-82
2022/04/24 00:59:02;;;;;;;3.63;2.72;;;;;;;;;;5129540;28;20020;-82
2022/04/24 01:01:27;;;;;;;6.20;3.30;;;;;;;;;;5125921;28;20079;-86
2022/04/24 01:03:53;;;;;;;5.68;3.47;;;;;;;;;;5114680;28;20032;-86
2022/04/24 01:06:19;;;;;;;5.82;4.05;;;;;;;;;;5108490;28;20047;-87
2022/04/24 01:08:44;;;;;;;5.13;3.30;;;;;;;;;;5114703;28;20000;-83
2022/04/24 01:11:09;;;;;;;4.80;3.35;;;;;;;;;;5116266;28;20102;-84
2022/04/24 01:13:35;;;;;;;5.30;3.97;;;;;;;;;;5116066;28;20016;-86
2022/04/24 01:16:00;;;;;;;7.77;3.70;;;;;;;;;;5115943;28;20062;-83
2022/04/24 01:18:25;;;;;;;6.03;4.27;;;;;;;;;;5116238;28;20260;-86
2022/04/24 01:20:50;;;;;;;7.32;4.38;;;;;;;;;;5116990;28;20335;-86
2022/04/24 01:23:16;;;;;;;7.30;3.92;;;;;;;;;;5116491;28;20016;-88
2022/04/24 01:25:41;;;;;;;5.90;4.60;;;;;;;;;;5116893;28;20027;-84
2022/04/24 01:28:08;;;;;;;6.90;4.07;;;;;;;;;;5117637;28;20280;-83
2022/04/24 01:30:33;;;;;;;7.68;4.53;;;;;;;;;;5117073;28;20016;-87
2022/04/24 01:32:59;;;;;;;8.23;4.63;;;;;;;;;;5118255;28;20074;-82
2022/04/24 01:35:24;;;;;;;6.90;4.35;;;;;;;;;;5124311;28;20113;-84
2022/04/24 01:37:49;;;;;;;5.32;3.92;;;;;;;;;;5134106;28;20026;-84
2022/04/24 01:40:14;;;;;;;7.95;4.20;;;;;;;;;;5133993;28;20067;-84
2022/04/24 01:42:40;;;;;;;10.75;4.47;;;;;;;;;;5137622;28;20019;-86
2022/04/24 01:45:05;;;;;;;6.50;4.20;;;;;;;;;;5136739;28;20408;-83
2022/04/24 01:47:31;;;;;;;9.68;5.18;;;;;;;;;;5136913;28;20012;-83
2022/04/24 01:49:56;;;;;;;7.32;4.57;;;;;;;;;;5136127;28;20027;-85
2022/04/24 01:52:21;;;;;;;7.00;4.53;;;;;;;;;;5136524;28;20063;-85
2022/04/24 01:54:46;;;;;;;5.73;4.73;;;;;;;;;;5134653;28;20288;-84
2022/04/24 01:57:12;;;;;;;5.45;4.05;;;;;;;;;;5133009;28;20252;-85
2022/04/24 01:59:37;;;;;;;6.03;4.30;;;;;;;;;;5135021;28;20030;-83
2022/04/24 02:02:02;;;;;;;7.00;3.83;;;;;;;;;;5134930;28;20027;-84
2022/04/24 02:04:28;;;;;;;7.07;4.88;;;;;;;;;;5133542;28;20256;-82
2022/04/24 02:06:53;;;;;;;8.68;4.60;;;;;;;;;;5134395;28;20073;-84
2022/04/24 02:09:18;;;;;;;6.82;4.80;;;;;;;;;;5117153;28;20031;-85
2022/04/24 02:11:43;;;;;;;10.93;4.72;;;;;;;;;;5114793;28;20024;-84
2022/04/24 02:14:09;;;;;;;7.55;4.15;;;;;;;;;;5114662;28;19992;-85
2022/04/24 02:16:34;;;;;;;8.93;3.97;;;;;;;;;;5115559;28;20008;-82
2022/04/24 02:18:59;;;;;;;7.28;4.22;;;;;;;;;;5114709;28;20023;-84
2022/04/24 02:21:26;;;;;;;5.78;4.28;;;;;;;;;;5116642;28;20079;-85
2022/04/24 02:23:51;;;;;;;5.55;4.25;;;;;;;;;;5116351;28;20042;-85
2022/04/24 02:26:16;;;;;;;9.52;4.78;;;;;;;;;;5115441;28;20036;-85
2022/04/24 02:28:42;;;;;;;8.70;4.38;;;;;;;;;;5113725;28;20558;-81
2022/04/24 02:31:07;;;;;;;6.25;4.13;;;;;;;;;;5115535;28;20071;-80
2022/04/24 02:33:32;;;;;;;7.90;4.72;;;;;;;;;;5115285;28;20027;-82
2022/04/24 02:35:58;;;;;;;7.57;4.47;;;;;;;;;;5115985;28;20051;-84
2022/04/24 02:38:23;;;;;;;6.80;4.47;;;;;;;;;;5114120;28;20540;-84
2022/04/24 02:40:48;;;;;;;5.50;3.90;;;;;;;;;;5113392;28;20072;-84
2022/04/24 02:43:13;;;;;;;8.05;4.70;;;;;;;;;;5112826;28;20083;-85
2022/04/24 02:45:40;;;;;;;8.75;4.55;;;;;;;;;;5130979;28;20000;-82
2022/04/24 02:48:05;;;;;;;5.88;4.35;;;;;;;;;;5134931;28;20015;-83
2022/04/24 02:50:30;;;;;;;6.78;4.15;;;;;;;;;;5115547;28;20008;-87
2022/04/24 02:52:56;;;;;;;8.40;4.30;;;;;;;;;;5115112;28;20024;-86
2022/04/24 02:55:22;;;;;;;5.22;3.72;;;;;;;;;;5129138;28;20033;-87
2022/04/24 02:57:48;;;;;;;6.25;4.03;;;;;;;;;;5135271;28;20023;-84
2022/04/24 03:00:14;;;;;;;6.90;4.70;;;;;;;;;;5122310;28;20050;-83
2022/04/24 03:02:41;;;;;;;7.63;4.40;;;;;;;;;;5112533;28;20008;-80
2022/04/24 03:05:06;;;;;;;5.93;4.10;;;;;;;;;;5113952;28;20024;-80
2022/04/24 03:07:31;;;;;;;6.57;4.53;;;;;;;;;;5112876;28;20011;-87
2022/04/24 03:09:56;;;;;;;6.80;4.33;;;;;;;;;;5110640;28;20028;-86
2022/04/24 03:12:22;;;;;;;7.70;4.60;;;;;;;;;;5110768;28;20336;-84
2022/04/24 03:14:47;;;;;;;8.90;4.77;;;;;;;;;;5132699;28;20264;-81
2022/04/24 03:17:12;;;;;;;6.67;4.17;;;;;;;;;;5129294;28;20302;-86
2022/04/24 03:19:37;;;;;;;7.70;4.68;;;;;;;;;;5132451;28;20244;-86
2022/04/24 03:22:03;;;;;;;6.30;4.20;;;;;;;;;;5120603;28;20024;-84
2022/04/24 03:24:28;;;;;;;8.25;4.80;;;;;;;;;;5117729;28;20282;-83
2022/04/24 03:26:53;;;;;;;6.80;4.67;;;;;;;;;;5139158;28;20007;-85
2022/04/24 03:29:19;;;;;;;6.50;3.90;;;;;;;;;;5138078;28;20279;-82
2022/04/24 03:31:44;;;;;;;9.68;4.50;;;;;;;;;;5139520;28;20237;-85
2022/04/24 03:34:09;;;;;;;5.73;4.10;;;;;;;;;;5140172;28;20031;-82
2022/04/24 03:36:34;;;;;;;6.55;4.28;;;;;;;;;;5138208;28;20275;-83
2022/04/24 03:39:00;;;;;;;7.32;4.13;;;;;;;;;;5137643;28;20023;-84
2022/04/24 03:41:25;;;;;;;5.55;3.80;;;;;;;;;;5127485;28;20016;-83
2022/04/24 03:43:50;;;;;;;5.17;3.63;;;;;;;;;;5117005;28;20067;-84
2022/04/24 03:46:16;;;;;;;6.03;4.32;;;;;;;;;;5117703;28;20237;-87
2022/04/24 03:48:41;;;;;;;6.47;4.28;;;;;;;;;;5116026;28;20045;-84
2022/04/24 03:51:08;;;;;;;6.63;4.22;;;;;;;;;;5115957;28;20027;-85
2022/04/24 03:53:33;;;;;;;7.05;4.97;;;;;;;;;;5114218;28;20087;-83
2022/04/24 03:55:58;;;;;;;6.85;4.68;;;;;;;;;;5114135;28;20046;-83
2022/04/24 03:58:23;;;;;;;5.57;3.93;;;;;;;;;;5117045;28;20025;-83
2022/04/24 04:00:49;;;;;;;7.10;4.35;;;;;;;;;;5137292;28;20255;-85
2022/04/24 04:03:14;;;;;;;7.85;5.00;;;;;;;;;;5136488;28;20083;-82
2022/04/24 04:05:39;;;;;;;7.50;4.78;;;;;;;;;;5135531;28;20110;-83
2022/04/24 04:08:05;;;;;;;6.95;4.68;;;;;;;;;;5135450;28;20008;-86
2022/04/24 04:10:30;;;;;;;6.88;4.50;;;;;;;;;;5137139;28;20019;-86
2022/04/24 04:12:55;;;;;;;6.70;4.68;;;;;;;;;;5138562;28;20038;-84
2022/04/24 04:15:21;;;;;;;8.27;5.20;;;;;;;;;;5137124;28;20035;-82
2022/04/24 04:17:46;;;;;;;7.60;5.07;;;;;;;;;;5137056;28;20253;-82
2022/04/24 04:20:12;;;;;;;7.95;5.20;;;;;;;;;;5135208;28;20038;-85
2022/04/24 04:22:51;;;;;;;6.53;4.57;;;;;;;;;;5132760;28;20038;-86
2022/04/24 04:25:20;;;;;;;5.82;4.55;;;;;;;;;;5126116;28;20019;-82
2022/04/24 04:27:46;;;;;;;7.03;4.85;;;;;;;;;;5133586;28;20150;-81
2022/04/24 04:30:11;;;;;;;8.27;4.78;;;;;;;;;;5136756;28;20007;-86
2022/04/24 04:32:36;;;;;;;7.05;4.82;;;;;;;;;;5137015;28;20039;-85
2022/04/24 04:35:02;;;;;;;6.82;4.88;;;;;;;;;;5137331;28;20023;-85
2022/04/24 04:37:28;;;;;;;8.82;4.43;;;;;;;;;;5116203;28;20027;-84
2022/04/24 04:39:53;;;;;;;6.75;4.80;;;;;;;;;;5127947;28;20016;-84
2022/04/24 04:42:18;;;;;;;7.63;4.70;;;;;;;;;;5123532;28;19999;-83
2022/04/24 04:44:44;;;;;;;8.15;4.95;;;;;;;;;;5118383;28;20261;-90
2022/04/24 04:47:09;;;;;;;6.00;4.10;;;;;;;;;;5117338;28;20024;-85
2022/04/24 04:49:34;;;;;;;5.60;4.18;;;;;;;;;;5115562;28;20016;-84
2022/04/24 04:51:59;;;;;;;6.45;4.30;;;;;;;;;;5114501;28;20098;-83
2022/04/24 04:54:25;;;;;;;6.00;3.97;;;;;;;;;;5114203;28;20416;-75
2022/04/24 04:56:50;;;;;;;8.68;4.80;;;;;;;;;;5094863;28;20038;-75
2022/04/24 04:59:15;;;;;;;6.50;4.17;;;;;;;;;;5092348;28;20020;-76
2022/04/24 05:01:40;;;;;;;5.28;3.78;;;;;;;;;;5092264;28;20276;-76
2022/04/24 05:04:06;;;;;;;8.18;4.28;;;;;;;;;;5092926;28;20477;-76
2022/04/24 05:06:32;;;;;;;6.63;3.97;;;;;;;;;;5092262;28;20445;-75
2022/04/24 05:08:57;;;;;;;5.55;3.63;;;;;;;;;;5099949;28;20019;-76
2022/04/24 05:11:23;;;;;;;5.88;3.67;;;;;;;;;;5102587;28;20104;-76
2022/04/24 05:13:48;;;;;;;8.35;3.63;;;;;;;;;;5094593;28;20020;-75
2022/04/24 05:16:13;;;;;;;4.27;2.10;;;;;;;;;;5091685;28;20066;-73
2022/04/24 05:18:38;;;;;;;3.93;2.10;;;;;;;;;;5092450;28;20257;-75
2022/04/24 05:21:04;;;;;;;4.97;1.88;;;;;;;;;;5092584;28;20745;-75
2022/04/24 05:23:29;;;;;;;5.38;2.58;;;;;;;;;;5093439;28;20016;-74
2022/04/24 05:25:54;;;;;;;4.00;1.63;;;;;;;;;;5097442;28;20031;-77
2022/04/24 05:28:20;;;;;;;3.47;1.80;;;;;;;;;;5096873;28;20098;-74
2022/04/24 05:30:45;;;;;;;4.82;2.38;;;;;;;;;;5092085;28;20028;-75
2022/04/24 05:33:15;;;;;;;2.83;1.65;;;;;;;;;;5091987;28;20020;-74
2022/04/24 05:35:40;;;;;;;3.15;1.83;;;;;;;;;;5091309;28;20118;-75
2022/04/24 05:38:06;;;;;;;2.47;1.40;;;;;;;;;;5091806;28;20106;-75
2022/04/24 05:40:31;;;;;;;2.90;1.43;;;;;;;;;;5091996;28;20062;-75
2022/04/24 05:42:56;;;;;;;2.15;1.40;;;;;;;;;;5091628;28;20275;-75
2022/04/24 05:45:22;;;;;;;1.15;1.02;;;;;;;;;;5101967;28;20476;-76
2022/04/24 05:47:51;;;;;;;1.60;1.20;;;;;;;;;;5101236;28;20015;-74
2022/04/24 05:50:16;;;;;;;1.65;1.10;;;;;;;;;;5110005;28;20486;-74
2022/04/24 05:52:43;;;;;;;5.63;2.70;;;;;;;;;;5110478;28;20016;-75
2022/04/24 05:55:08;;;;;;;7.70;4.65;;;;;;;;;;5111892;28;20423;-79
2022/04/24 05:57:34;;;;;;;2.55;1.80;;;;;;;;;;5117983;28;20023;-84
2022/04/24 05:59:59;;;;;;;2.15;1.17;;;;;;;;;;5122331;28;20392;-84
2022/04/24 06:02:25;;;;;;;1.92;1.10;;;;;;;;;;5128733;28;20088;-75
2022/04/24 06:04:50;;;;;;;12.07;4.47;;;;;;;;;;5112381;28;20491;-75
2022/04/24 06:07:15;;;;;;;1.58;1.30;;;;;;;;;;5112050;28;20858;-76
2022/04/24 06:09:41;;;;;;;1.20;1.10;;;;;;;;;;5115635;28;20020;-75
2022/04/24 06:12:07;;;;;;;1.30;1.20;;;;;;;;;;5117813;28;20260;-75
2022/04/24 06:14:32;;;;;;;2.50;1.40;;;;;;;;;;5115421;28;20485;-75
2022/04/24 06:17:00;;;;;;;1.95;1.40;;;;;;;;;;5113443;28;20047;-75
2022/04/24 06:19:25;;;;;;;1.92;1.48;;;;;;;;;;5108125;28;20358;-76
2022/04/24 06:21:50;;;;;;;1.83;1.50;;;;;;;;;;5099990;28;20030;-76
2022/04/24 06:24:15;;;;;;;2.95;1.40;;;;;;;;;;5100031;28;20027;-75
2022/04/24 06:26:44;;;;;;;2.10;1.50;;;;;;;;;;5102712;28;20012;-76
2022/04/24 06:29:09;;;;;;;1.75;1.48;;;;;;;;;;5099594;28;20043;-76
2022/04/24 06:31:34;;;;;;;1.90;1.50;;;;;;;;;;5109984;28;20015;-75
2022/04/24 06:33:59;;;;;;;3.00;1.50;;;;;;;;;;5102516;28;20107;-75
2022/04/24 06:36:25;;;;;;;1.43;1.33;;;;;;;;;;5090533;28;20047;-76
2022/04/24 06:38:50;;;;;;;2.90;1.40;;;;;;;;;;5090216;28;20330;-77
2022/04/24 06:41:15;;;;;;;2.10;1.40;;;;;;;;;;5095982;28;20298;-82
2022/04/24 06:43:40;;;;;;;3.92;1.65;;;;;;;;;;5101906;28;20265;-83
2022/04/24 06:46:06;;;;;;;3.58;1.40;;;;;;;;;;5098770;28;20023;-89
2022/04/24 06:48:31;;;;;;;1.70;1.40;;;;;;;;;;5112749;28;20030;-82
2022/04/24 06:50:56;;;;;;;3.70;1.50;;;;;;;;;;5113502;28;20492;-84
2022/04/24 06:53:21;;;;;;;1.90;1.30;;;;;;;;;;5118992;28;20007;-84
2022/04/24 06:55:48;;;;;;;2.35;1.33;;;;;;;;;;5108524;28;20028;-85
2022/04/24 06:58:14;;;;;;;1.55;1.30;;;;;;;;;;5113553;28;20019;-84
2022/04/24 07:00:42;;;;;;;1.30;1.00;;;;;;;;;;5119126;28;20019;-83
2022/04/24 07:03:26;;;;;;;3.08;1.30;;;;;;;;;;5122146;28;20019;-85
2022/04/24 07:05:53;;;;;;;1.67;1.30;;;;;;;;;;5124025;28;20027;-87
2022/04/24 07:08:19;;;;;;;3.05;1.33;;;;;;;;;;5128614;28;20040;-85
2022/04/24 07:10:44;;;;;;;2.72;1.40;;;;;;;;;;5132467;28;20053;-83
2022/04/24 07:13:10;;;;;;;1.40;1.23;;;;;;;;;;5131340;28;20008;-80
2022/04/24 07:15:36;;;;;;;1.52;1.30;;;;;;;;;;5131540;28;20056;-85
2022/04/24 07:18:02;;;;;;;1.20;1.10;;;;;;;;;;5134319;28;20025;-85
2022/04/24 07:20:30;;;;;;;1.58;1.30;;;;;;;;;;5122147;28;20004;-83
2022/04/24 07:23:01;;;;;;;1.58;1.23;;;;;;;;;;5110277;28;20020;-83
2022/04/24 07:25:27;;;;;;;1.50;1.25;;;;;;;;;;5106110;28;20380;-81
2022/04/24 07:27:53;;;;;;;1.42;1.30;;;;;;;;;;5109059;28;20101;-85
2022/04/24 07:30:19;;;;;;;1.20;1.10;;;;;;;;;;5119102;28;20045;-88
2022/04/24 07:32:47;;;;;;;1.92;1.40;;;;;;;;;;5122436;28;20016;-86
2022/04/24 07:35:14;;;;;;;1.90;1.45;;;;;;;;;;5115822;28;20028;-85
2022/04/24 07:37:39;;;;;;;2.90;1.60;;;;;;;;;;5113938;28;20024;-85
2022/04/24 07:40:06;;;;;;;2.97;1.65;;;;;;;;;;5109076;28;20019;-83
2022/04/24 07:42:32;;;;;;;2.47;1.63;;;;;;;;;;5107754;28;20469;-82
2022/04/24 07:44:57;;;;;;;2.70;1.70;;;;;;;;;;5109172;28;20020;-81
2022/04/24 07:47:22;;;;;;;2.37;1.70;;;;;;;;;;5103485;28;20021;-84
2022/04/24 07:49:47;;;;;;;1.60;1.10;;;;;;;;;;5113820;28;20725;-82
2022/04/24 07:52:13;;;;;;;1.83;1.27;;;;;;;;;;5119615;28;20020;-84
2022/04/24 07:54:38;;;;;;;1.55;1.20;;;;;;;;;;5107401;28;20282;-85
2022/04/24 07:57:05;;;;;;;3.53;1.20;;;;;;;;;;5110524;28;20016;-84
2022/04/24 07:59:30;;;;;;;3.17;1.20;;;;;;;;;;5107177;28;20292;-84
2022/04/24 08:01:55;;;;;;;1.33;1.20;;;;;;;;;;5112483;28;20017;-82
2022/04/24 08:04:20;;;;;;;1.93;1.50;;;;;;;;;;5114241;28;20291;-79
2022/04/24 08:06:46;;;;;;;1.63;1.40;;;;;;;;;;5101557;28;20156;-82
2022/04/24 08:09:11;;;;;;;3.35;1.67;;;;;;;;;;5101372;28;20015;-80
2022/04/24 08:11:36;;;;;;;2.00;1.40;;;;;;;;;;5100060;28;20031;-76
2022/04/24 08:14:01;;;;;;;2.03;1.50;;;;;;;;;;5108673;28;20024;-77
2022/04/24 08:16:27;;;;;;;2.37;1.60;;;;;;;;;;5102428;28;21079;-82
2022/04/24 08:19:01;;;;;;;1.98;1.40;;;;;;;;;;5104145;28;20491;-78
2022/04/24 08:21:29;;;;;;;2.47;1.30;;;;;;;;;;5100286;28;20115;-76
2022/04/24 08:23:54;;;;;;;3.40;1.73;;;;;;;;;;5105116;28;20036;-77
2022/04/24 08:26:20;;;;;;;2.43;1.33;;;;;;;;;;5098335;28;20047;-74
2022/04/24 08:28:45;;;;;;;2.42;1.40;;;;;;;;;;5100150;28;20129;-75
2022/04/24 08:31:10;;;;;;;1.20;1.10;;;;;;;;;;5099707;28;20480;-75
2022/04/24 08:33:35;;;;;;;2.28;1.40;;;;;;;;;;5102375;28;20012;-76
2022/04/24 08:36:01;;;;;;;1.70;1.10;;;;;;;;;;5096402;28;20032;-74
2022/04/24 08:38:26;;;;;;;3.47;1.83;;;;;;;;;;5102670;28;20342;-73
2022/04/24 08:40:52;;;;;;;2.43;1.70;;;;;;;;;;5096640;28;20024;-74
2022/04/24 08:43:18;;;;;;;2.03;1.30;;;;;;;;;;5095536;28;20630;-74
2022/04/24 08:45:46;;;;;;;2.97;1.40;;;;;;;;;;5093614;28;20022;-75
2022/04/24 08:48:11;;;;;;;2.10;1.60;;;;;;;;;;5101984;28;20016;-73
2022/04/24 08:50:38;;;;;;;3.47;1.40;;;;;;;;;;5099735;28;20019;-72
2022/04/24 08:53:03;;;;;;;2.78;1.33;;;;;;;;;;5108343;28;20719;-73
2022/04/24 08:55:30;;;;;;;2.70;1.23;;;;;;;;;;5102222;28;20073;-72
2022/04/24 08:57:56;;;;;;;2.05;1.50;;;;;;;;;;5110134;28;20031;-72
2022/04/24 09:00:22;;;;;;;1.73;1.40;;;;;;;;;;5101852;28;20110;-71
2022/04/24 09:02:48;;;;;;;1.45;1.30;;;;;;;;;;5096246;28;20602;-72
2022/04/24 09:05:13;;;;;;;4.40;1.38;;;;;;;;;;5096683;28;20061;-72
2022/04/24 09:07:42;;;;;;;2.45;1.73;;;;;;;;;;5101379;28;20143;-80
2022/04/24 09:10:12;;;;;;;2.58;1.25;;;;;;;;;;5112087;28;20027;-77
2022/04/24 09:12:38;;;;;;;3.35;1.50;;;;;;;;;;5098630;28;20055;-74
2022/04/24 09:15:04;;;;;;;4.18;1.88;;;;;;;;;;5100906;28;20096;-75
2022/04/24 09:17:30;;;;;;;4.93;1.60;;;;;;;;;;5104296;28;20008;-81
2022/04/24 09:19:56;;;;;;;2.47;1.50;;;;;;;;;;5101473;28;20020;-76
2022/04/24 09:22:25;;;;;;;2.17;1.48;;;;;;;;;;5101958;28;20026;-78
2022/04/24 09:24:52;;;;;;;1.83;1.38;;;;;;;;;;5101543;28;20118;-75
2022/04/24 09:27:32;;;;;;;2.35;1.55;;;;;;;;;;5099786;28;20084;-79
2022/04/24 09:29:57;;;;;;;3.28;1.80;;;;;;;;;;5105246;28;20038;-78
2022/04/24 09:32:24;;;;;;;3.43;1.27;;;;;;;;;;5109216;28;20086;-75
2022/04/24 09:34:50;;;;;;;2.88;1.45;;;;;;;;;;5102202;28;20023;-76
2022/04/24 09:37:16;;;;;;;2.60;1.50;;;;;;;;;;5100359;28;20015;-75
2022/04/24 09:39:41;;;;;;;2.47;1.40;;;;;;;;;;5097935;28;20595;-77
2022/04/24 09:42:10;;;;;;;2.60;1.40;;;;;;;;;;5104703;28;20514;-77
2022/04/24 09:44:56;;;;;;;3.05;1.50;;;;;;;;;;5105191;28;20023;-81
2022/04/24 09:47:21;;;;;;;;;;;;;;;;;;5109908;28;20035;-84
2022/04/24 09:49:47;;;;;;;1.50;1.10;;;;;;;;;;5104245;28;20303;-78
2022/04/24 09:52:16;;;;;;;2.17;1.30;;;;;;;;;;5106731;28;20028;-78
2022/04/24 09:54:42;;;;;;;3.40;1.30;;;;;;;;;;5101898;28;20027;-78
2022/04/24 09:57:11;;;;;;;2.13;1.35;;;;;;;;;;5102890;28;20089;-80
2022/04/24 09:59:38;;;;;;;2.92;1.50;;;;;;;;;;5098519;28;20427;-78
2022/04/24 10:02:04;;;;;;;3.95;1.55;;;;;;;;;;5093280;28;20127;-79
2022/04/24 10:04:29;;;;;;;2.35;1.60;;;;;;;;;;5097441;28;20051;-79
2022/04/24 10:06:55;;;;;;;4.20;1.80;;;;;;;;;;5108810;28;20020;-78
2022/04/24 10:09:20;;;;;;;7.00;2.75;;;;;;;;;;5111684;28;20016;-79
2022/04/24 10:11:46;;;;;;;4.88;2.65;;;;;;;;;;5108152;28;20024;-81
2022/04/24 10:14:13;;;;;;;3.92;2.05;;;;;;;;;;5110237;28;20019;-84
2022/04/24 10:16:47;;;;;;;33.85;20.20;;;;;;;;;;5107375;28;20599;-79
2022/04/24 10:19:27;;;;;;;3.47;1.90;;;;;;;;;;5106955;28;20499;-78
2022/04/24 10:22:12;;;;;;;2.42;1.50;;;;;;;;;;5108841;28;20020;-80
2022/04/24 10:24:41;;;;;;;4.45;1.55;;;;;;;;;;5096701;28;20057;-79
2022/04/24 10:27:07;;;;;;;6.38;2.25;;;;;;;;;;5110677;28;20015;-77
2022/04/24 10:29:33;;;;;;;2.55;1.50;;;;;;;;;;5106263;28;20130;-82
2022/04/24 10:31:59;;;;;;;2.65;1.30;;;;;;;;;;5101906;28;20114;-80
2022/04/24 10:34:26;;;;;;;2.60;1.40;;;;;;;;;;5104556;28;20088;-82
2022/04/24 10:36:55;;;;;;;4.68;1.83;;;;;;;;;;5099142;28;20050;-79
2022/04/24 10:39:21;;;;;;;2.92;1.50;;;;;;;;;;5108476;28;20016;-78
2022/04/24 10:41:57;;;;;;;4.18;1.80;;;;;;;;;;5093637;28;20473;-78
2022/04/24 10:44:23;;;;;;;2.42;1.25;;;;;;;;;;5102175;28;20155;-78
2022/04/24 10:46:49;;;;;;;2.92;1.50;;;;;;;;;;5100417;28;20059;-82
2022/04/24 10:49:15;;;;;;;3.53;1.60;;;;;;;;;;5100742;28;20831;-78
2022/04/24 10:51:42;;;;;;;4.05;1.73;;;;;;;;;;5103648;28;20015;-78
2022/04/24 10:54:08;;;;;;;2.03;1.33;;;;;;;;;;5098556;28;20138;-79
2022/04/24 10:56:34;;;;;;;3.65;1.90;;;;;;;;;;5110964;28;20030;-77
2022/04/24 10:59:07;;;;;;;3.30;1.38;;;;;;;;;;5097861;28;20024;-79
2022/04/24 11:01:35;;;;;;;1.70;1.42;;;;;;;;;;5101596;28;20362;-79
2022/04/24 11:04:04;;;;;;;2.55;1.42;;;;;;;;;;5112697;28;20024;-83
2022/04/24 11:06:30;;;;;;;3.33;1.70;;;;;;;;;;5097872;28;20085;-82
2022/04/24 11:09:05;;;;;;;2.47;1.37;;;;;;;;;;5099172;28;20020;-80
2022/04/24 11:11:31;;;;;;;2.42;1.52;;;;;;;;;;5097451;28;20256;-78
2022/04/24 11:13:59;;;;;;;3.85;1.50;;;;;;;;;;5105481;28;20055;-80
2022/04/24 11:16:24;;;;;;;5.38;1.42;;;;;;;;;;5100763;28;20531;-86
2022/04/24 11:18:49;;;;;;;1.90;1.40;;;;;;;;;;5101610;28;20024;-81
2022/04/24 11:21:19;;;;;;;3.22;1.50;;;;;;;;;;5093933;28;20076;-76
2022/04/24 11:23:44;;;;;;;3.58;1.42;;;;;;;;;;5098875;28;20075;-75
2022/04/24 11:26:12;;;;;;;1.70;1.20;;;;;;;;;;5095810;28;20083;-76
2022/04/24 11:28:39;;;;;;;1.83;1.30;;;;;;;;;;5108899;28;20085;-75
2022/04/24 11:31:11;;;;;;;4.40;1.45;;;;;;;;;;5091889;28;20012;-75
2022/04/24 11:33:37;;;;;;;2.63;1.50;;;;;;;;;;5095001;28;20015;-74
2022/04/24 11:36:05;;;;;;;2.60;1.50;;;;;;;;;;5108927;28;20097;-74
2022/04/24 11:38:31;;;;;;;3.42;2.03;;;;;;;;;;5092930;28;20020;-75
2022/04/24 11:40:58;;;;;;;2.85;1.55;;;;;;;;;;5103709;28;20035;-75
2022/04/24 11:43:23;;;;;;;2.25;1.48;;;;;;;;;;5098089;28;20103;-74
2022/04/24 11:51:18;;;;;;;3.22;1.30;;;;;;;;;;5094044;28;20338;-76
2022/04/24 11:53:44;;;;;;;2.60;1.48;;;;;;;;;;5103402;28;20476;-74
2022/04/24 11:56:10;;;;;;;1.67;1.30;;;;;;;;;;5105012;28;20028;-75
2022/04/24 11:58:36;;;;;;;3.75;1.38;;;;;;;;;;5117470;28;20026;-76
2022/04/24 12:01:07;;;;;;;4.28;1.40;;;;;;;;;;5094008;28;20157;-75
2022/04/24 12:03:33;;;;;;;2.90;1.30;;;;;;;;;;5100887;28;20019;-75
2022/04/24 12:05:59;;;;;;;1.95;1.30;;;;;;;;;;5100836;28;20034;-76
2022/04/24 12:08:26;;;;;;;1.65;1.23;;;;;;;;;;5098017;28;20016;-74
2022/04/24 12:10:51;;;;;;;3.25;1.58;;;;;;;;;;5101638;28;20032;-74
2022/04/24 12:13:28;;;;;;;3.88;1.33;;;;;;;;;;5102165;28;20023;-75
2022/04/24 12:15:53;;;;;;;4.32;1.40;;;;;;;;;;5093581;28;20054;-75
2022/04/24 12:18:23;;;;;;;2.58;1.35;;;;;;;;;;5093176;28;20461;-74
2022/04/24 12:20:49;;;;;;;2.70;1.15;;;;;;;;;;5098696;28;20019;-75
2022/04/24 12:23:15;;;;;;;2.97;1.58;;;;;;;;;;5096983;28;20147;-74
2022/04/24 12:25:51;;;;;;;3.22;1.50;;;;;;;;;;5097913;28;20452;-77
2022/04/24 12:28:29;;;;;;;2.42;1.75;;;;;;;;;;5099471;28;20092;-76
2022/04/24 12:30:55;;;;;;;3.15;1.55;;;;;;;;;;5100200;28;20020;-79
2022/04/24 12:33:21;;;;;;;2.28;1.30;;;;;;;;;;5101367;28;20047;-77
2022/04/24 12:35:46;;;;;;;2.67;1.35;;;;;;;;;;5101775;28;20074;-76
2022/04/24 12:38:12;;;;;;;6.65;1.40;;;;;;;;;;5102179;28;20027;-76
2022/04/24 12:40:38;;;;;;;2.40;1.50;;;;;;;;;;5097366;28;20103;-77
2022/04/24 12:43:03;;;;;;;2.10;1.20;;;;;;;;;;5099262;28;20125;-76
2022/04/24 12:45:28;;;;;;;1.57;1.40;;;;;;;;;;5097152;28;20048;-76
2022/04/24 12:47:53;;;;;;;1.92;1.27;;;;;;;;;;5102351;28;20252;-83
2022/04/24 12:50:19;;;;;;;2.57;1.30;;;;;;;;;;5103496;28;20059;-81
2022/04/24 12:52:44;;;;;;;3.33;1.25;;;;;;;;;;5098975;28;20264;-82
2022/04/24 12:55:10;;;;;;;2.08;1.40;;;;;;;;;;5110430;27;20103;-80
2022/04/24 12:57:35;;;;;;;1.42;1.10;;;;;;;;;;5111756;28;20075;-85
2022/04/24 13:00:01;;;;;;;2.42;1.40;;;;;;;;;;5109357;28;20522;-84
2022/04/24 13:02:27;;;;;;;4.50;2.20;;;;;;;;;;5110098;27;20012;-80
2022/04/24 13:04:53;;;;;;;2.97;1.52;;;;;;;;;;5111278;28;20020;-84
2022/04/24 13:07:18;;;;;;;3.75;1.42;;;;;;;;;;5111801;28;20099;-88
2022/04/24 13:09:43;;;;;;;4.17;1.30;;;;;;;;;;5117526;28;20071;-85
2022/04/24 13:12:11;;;;;;;2.70;1.88;;;;;;;;;;5130190;27;20264;-83
2022/04/24 13:14:37;;;;;;;4.95;1.73;;;;;;;;;;5117193;28;20024;-83
2022/04/24 13:19:46;;;;;;;2.50;1.30;;;;;;;;;;5114886;28;20027;-87
2022/04/24 13:22:11;;;;;;;4.72;1.60;;;;;;;;;;5117582;28;20008;-83
2022/04/24 13:24:36;;;;;;;2.08;1.20;;;;;;;;;;5104081;28;20533;-81
2022/04/24 13:27:02;;;;;;;1.77;1.23;;;;;;;;;;5115569;28;20373;-80
2022/04/24 13:29:29;;;;;;;6.90;1.52;;;;;;;;;;5116741;28;20028;-76
2022/04/24 13:31:55;;;;;;;2.83;1.40;;;;;;;;;;5123178;28;20053;-79
2022/04/24 13:34:20;;;;;;;3.08;1.50;;;;;;;;;;5128374;28;20031;-82
2022/04/24 13:36:45;;;;;;;5.47;1.70;;;;;;;;;;5109973;28;20085;-87
2022/04/24 13:39:11;;;;;;;4.22;1.63;;;;;;;;;;5110891;28;20040;-85
2022/04/24 13:41:36;;;;;;;4.32;1.55;;;;;;;;;;5119795;28;20024;-85
2022/04/24 13:44:01;;;;;;;2.30;1.50;;;;;;;;;;5114504;28;20039;-84
2022/04/24 13:46:30;;;;;;;2.58;1.40;;;;;;;;;;5128101;28;20039;-83
2022/04/24 13:48:56;;;;;;;4.97;1.40;;;;;;;;;;5120346;28;20024;-80
2022/04/24 13:51:22;;;;;;;5.65;1.45;;;;;;;;;;5116853;28;20036;-81
2022/04/24 13:53:48;;;;;;;6.43;1.60;;;;;;;;;;5106750;28;20056;-81
2022/04/24 13:56:13;;;;;;;1.90;1.20;;;;;;;;;;5101177;28;20043;-75
2022/04/24 13:58:39;;;;;;;7.32;1.65;;;;;;;;;;5108861;28;20051;-86
2022/04/24 14:01:06;;;;;;;4.00;1.20;;;;;;;;;;5104035;28;20691;-83
2022/04/24 14:03:31;;;;;;;3.08;1.50;;;;;;;;;;5113492;28;20489;-80
2022/04/24 14:05:57;;;;;;;2.20;1.20;;;;;;;;;;5118002;28;20072;-79
2022/04/24 14:08:26;;;;;;;4.60;1.77;;;;;;;;;;5107676;28;20370;-82
2022/04/24 14:10:51;;;;;;;3.60;1.40;;;;;;;;;;5109862;28;20015;-87
2022/04/24 14:13:17;;;;;;;3.42;1.98;;;;;;;;;;5105451;28;20026;-79
2022/04/24 14:15:43;;;;;;;1.88;1.48;;;;;;;;;;5106087;28;20036;-86
2022/04/24 14:18:09;;;;;;;4.65;1.60;;;;;;;;;;5097140;28;20023;-82
2022/04/24 14:20:34;;;;;;;4.53;2.55;;;;;;;;;;5102342;28;20111;-84
2022/04/24 14:22:59;;;;;;;3.20;1.92;;;;;;;;;;5102724;28;20026;-83
2022/04/24 14:25:25;;;;;;;2.42;1.58;;;;;;;;;;5095138;28;20473;-81
2022/04/24 14:27:51;;;;;;;3.47;1.50;;;;;;;;;;5100390;28;20070;-77
2022/04/24 14:30:17;;;;;;;2.63;1.52;;;;;;;;;;5097354;28;20107;-86
2022/04/24 14:32:42;;;;;;;5.78;2.00;;;;;;;;;;5102958;28;20016;-84
2022/04/24 14:35:17;;;;;;;3.25;1.63;;;;;;;;;;5117999;28;20031;-76
2022/04/24 14:37:42;;;;;;;3.57;1.60;;;;;;;;;;5099721;28;20022;-76
2022/04/24 14:40:09;;;;;;;2.85;1.33;;;;;;;;;;5098606;28;20252;-77
2022/04/24 14:42:35;;;;;;;2.38;1.50;;;;;;;;;;5098645;28;20043;-78
2022/04/24 14:45:01;;;;;;;3.60;1.50;;;;;;;;;;5104725;28;20012;-77